createdAt,value
2017-12-27T00:00:54.083Z,100.0
2017-12-27T00:01:55.486Z,100.0
2017-12-27T00:02:56.880Z,100.0
2017-12-27T00:03:58.302Z,100.0
2017-12-27T00:04:59.702Z,100.0
2017-12-27T00:06:01.106Z,100.0
2017-12-27T00:07:02.524Z,100.0
2017-12-27T00:08:03.960Z,100.0
2017-12-27T00:09:05.403Z,100.0
2017-12-27T00:10:06.807Z,100.0
2017-12-27T00:11:08.282Z,100.0
2017-12-27T00:12:09.684Z,100.0
2017-12-27T00:13:11.084Z,100.0
2017-12-27T00:14:12.499Z,100.0
2017-12-27T00:15:13.906Z,100.0
2017-12-27T00:16:15.296Z,100.0
2017-12-27T00:17:16.732Z,100.0
2017-12-27T00:18:18.113Z,100.0
2017-12-27T00:19:19.603Z,100.0
2017-12-27T00:20:20.998Z,100.0
2017-12-27T00:21:22.480Z,100.0
2017-12-27T00:22:23.880Z,100.0
2017-12-27T00:23:25.277Z,100.0
2017-12-27T00:24:26.699Z,100.0
2017-12-27T00:25:28.097Z,100.0
2017-12-27T00:26:29.502Z,100.0
2017-12-27T00:27:30.920Z,100.0
2017-12-27T00:28:32.326Z,100.0
2017-12-27T00:29:33.717Z,100.0
2017-12-27T00:30:35.136Z,100.0
2017-12-27T00:31:36.538Z,100.0
2017-12-27T00:32:37.936Z,100.0
2017-12-27T00:33:39.362Z,100.0
2017-12-27T00:34:40.771Z,100.0
2017-12-27T00:35:42.167Z,100.0
2017-12-27T00:36:43.678Z,100.0
2017-12-27T00:37:45.079Z,100.0
2017-12-27T00:38:46.477Z,100.0
2017-12-27T00:39:47.895Z,100.0
2017-12-27T00:40:49.299Z,100.0
2017-12-27T00:41:50.696Z,100.0
2017-12-27T00:42:52.120Z,100.0
2017-12-27T00:43:53.525Z,100.0
2017-12-27T00:44:55.002Z,100.0
2017-12-27T00:45:56.393Z,100.0
2017-12-27T00:46:57.876Z,100.0
2017-12-27T00:47:59.274Z,100.0
2017-12-27T00:49:00.691Z,100.0
2017-12-27T00:50:02.197Z,100.0
2017-12-27T00:51:03.595Z,100.0
2017-12-27T00:52:04.993Z,100.0
2017-12-27T00:53:06.418Z,100.0
2017-12-27T00:54:07.814Z,100.0
2017-12-27T00:55:09.230Z,100.0
2017-12-27T00:56:10.737Z,100.0
2017-12-27T00:57:12.137Z,100.0
2017-12-27T00:58:13.544Z,100.0
2017-12-27T00:59:14.957Z,100.0
2017-12-27T01:00:16.355Z,100.0
2017-12-27T01:01:17.754Z,100.0
2017-12-27T01:02:19.174Z,100.0
2017-12-27T01:03:20.572Z,100.0
2017-12-27T01:04:21.975Z,100.0
2017-12-27T01:05:23.392Z,100.0
2017-12-27T01:06:24.788Z,100.0
2017-12-27T01:07:26.203Z,100.0
2017-12-27T01:08:27.613Z,100.0
2017-12-27T01:09:29.015Z,100.0
2017-12-27T01:10:30.416Z,100.0
2017-12-27T01:11:31.847Z,100.0
2017-12-27T01:12:33.227Z,100.0
2017-12-27T01:13:34.626Z,100.0
2017-12-27T01:14:36.150Z,100.0
2017-12-27T01:15:37.551Z,100.0
2017-12-27T01:16:38.952Z,100.0
2017-12-27T01:17:40.370Z,100.0
2017-12-27T01:18:41.769Z,100.0
2017-12-27T01:19:43.206Z,100.0
2017-12-27T01:20:44.691Z,100.0
2017-12-27T01:21:46.092Z,100.0
2017-12-27T01:22:47.958Z,100.0
2017-12-27T01:23:49.355Z,100.0
2017-12-27T01:24:50.767Z,100.0
2017-12-27T01:25:52.235Z,100.0
2017-12-27T01:26:53.633Z,100.0
2017-12-27T01:27:55.032Z,100.0
2017-12-27T01:28:56.526Z,100.0
2017-12-27T01:29:57.921Z,100.0
2017-12-27T01:30:59.322Z,100.0
2017-12-27T01:32:00.740Z,100.0
2017-12-27T01:33:02.142Z,100.0
2017-12-27T01:34:03.539Z,100.0
2017-12-27T01:35:04.989Z,100.0
2017-12-27T01:36:06.389Z,100.0
2017-12-27T01:37:07.848Z,100.0
2017-12-27T01:38:09.238Z,100.0
2017-12-27T01:39:10.637Z,100.0
2017-12-27T01:40:12.060Z,100.0
2017-12-27T01:41:13.458Z,100.0
2017-12-27T01:42:14.857Z,100.0
2017-12-27T01:43:16.287Z,100.0
2017-12-27T01:44:17.684Z,100.0
2017-12-27T01:45:19.082Z,100.0
2017-12-27T01:46:20.502Z,100.0
2017-12-27T01:47:21.904Z,100.0
2017-12-27T01:48:23.301Z,100.0
2017-12-27T01:49:24.717Z,100.0
2017-12-27T01:50:26.116Z,100.0
2017-12-27T01:51:27.510Z,100.0
2017-12-27T01:52:28.936Z,100.0
2017-12-27T01:53:30.337Z,100.0
2017-12-27T01:54:31.737Z,100.0
2017-12-27T01:55:33.157Z,100.0
2017-12-27T01:56:34.555Z,100.0
2017-12-27T01:57:36.039Z,100.0
2017-12-27T01:58:37.435Z,100.0
2017-12-27T01:59:38.835Z,100.0
2017-12-27T02:00:40.256Z,100.0
2017-12-27T02:01:41.656Z,100.0
2017-12-27T02:02:43.054Z,100.0
2017-12-27T02:03:44.473Z,100.0
2017-12-27T02:04:45.871Z,100.0
2017-12-27T02:05:47.269Z,100.0
2017-12-27T02:06:48.691Z,100.0
2017-12-27T02:07:50.091Z,100.0
2017-12-27T02:08:51.522Z,100.0
2017-12-27T02:09:53.014Z,100.0
2017-12-27T02:10:54.456Z,100.0
2017-12-27T02:11:55.895Z,100.0
2017-12-27T02:12:57.301Z,100.0
2017-12-27T02:13:58.777Z,100.0
2017-12-27T02:15:00.176Z,100.0
2017-12-27T02:16:01.655Z,100.0
2017-12-27T02:17:03.055Z,100.0
2017-12-27T02:18:04.538Z,100.0
2017-12-27T02:19:05.932Z,100.0
2017-12-27T02:20:07.461Z,100.0
2017-12-27T02:21:08.823Z,100.0
2017-12-27T02:22:10.302Z,100.0
2017-12-27T02:23:12.085Z,100.0
2017-12-27T02:24:13.489Z,100.0
2017-12-27T02:25:14.929Z,100.0
2017-12-27T02:26:16.329Z,100.0
2017-12-27T02:27:17.722Z,100.0
2017-12-27T02:28:19.435Z,100.0
2017-12-27T02:29:20.760Z,100.0
2017-12-27T02:30:22.163Z,100.0
2017-12-27T02:31:23.681Z,100.0
2017-12-27T02:32:25.077Z,100.0
2017-12-27T02:33:26.942Z,100.0
2017-12-27T02:34:28.346Z,100.0
2017-12-27T02:35:29.746Z,100.0
2017-12-27T02:36:31.178Z,100.0
2017-12-27T02:37:32.579Z,100.0
2017-12-27T02:38:33.982Z,100.0
2017-12-27T02:39:35.400Z,100.0
2017-12-27T02:40:36.798Z,100.0
2017-12-27T02:41:38.278Z,100.0
2017-12-27T02:42:39.690Z,100.0
2017-12-27T02:43:41.163Z,100.0
2017-12-27T02:44:42.561Z,100.0
2017-12-27T02:45:43.971Z,100.0
2017-12-27T02:46:45.487Z,100.0
2017-12-27T02:47:46.880Z,100.0
2017-12-27T02:48:48.283Z,100.0
2017-12-27T02:49:49.717Z,100.0
2017-12-27T02:50:51.115Z,100.0
2017-12-27T02:51:52.515Z,100.0
2017-12-27T02:52:54.021Z,100.0
2017-12-27T02:53:55.416Z,100.0
2017-12-27T02:54:56.816Z,100.0
2017-12-27T02:55:58.237Z,100.0
2017-12-27T02:56:59.643Z,100.0
2017-12-27T02:58:01.121Z,100.0
2017-12-27T02:59:02.524Z,100.0
2017-12-27T03:00:03.918Z,100.0
2017-12-27T03:01:05.339Z,100.0
2017-12-27T03:02:06.735Z,100.0
2017-12-27T03:03:08.131Z,100.0
2017-12-27T03:04:09.558Z,100.0
2017-12-27T03:05:10.954Z,100.0
2017-12-27T03:06:12.356Z,100.0
2017-12-27T03:07:13.777Z,100.0
2017-12-27T03:08:15.169Z,100.0
2017-12-27T03:09:16.571Z,100.0
2017-12-27T03:10:17.995Z,100.0
2017-12-27T03:11:19.394Z,100.0
2017-12-27T03:12:20.875Z,100.0
2017-12-27T03:13:22.267Z,100.0
2017-12-27T03:14:23.757Z,100.0
2017-12-27T03:15:25.151Z,100.0
2017-12-27T03:16:26.550Z,100.0
2017-12-27T03:17:27.998Z,100.0
2017-12-27T03:18:29.389Z,100.0
2017-12-27T03:19:30.791Z,100.0
2017-12-27T03:20:32.314Z,100.0
2017-12-27T03:21:33.704Z,100.0
2017-12-27T03:22:35.100Z,100.0
2017-12-27T03:23:36.526Z,100.0
2017-12-27T03:24:37.910Z,100.0
2017-12-27T03:25:39.317Z,99.4
2017-12-27T03:26:40.732Z,98.9
2017-12-27T03:27:42.148Z,99.4
2017-12-27T03:28:43.613Z,99.4
2017-12-27T03:29:45.012Z,100.0
2017-12-27T03:30:46.414Z,99.4
2017-12-27T03:31:47.831Z,98.6
2017-12-27T03:32:49.232Z,99.0
2017-12-27T03:33:50.632Z,98.7
2017-12-27T03:34:52.052Z,98.9
2017-12-27T03:35:53.453Z,98.9
2017-12-27T03:36:54.848Z,97.6
2017-12-27T03:37:56.272Z,97.7
2017-12-27T03:38:57.669Z,97.5
2017-12-27T03:39:59.460Z,97.7
2017-12-27T03:41:00.899Z,97.5
2017-12-27T03:42:02.300Z,97.6
2017-12-27T03:43:03.779Z,97.5
2017-12-27T03:44:05.176Z,97.4
2017-12-27T03:45:06.660Z,97.6
2017-12-27T03:46:08.056Z,98.1
2017-12-27T03:47:09.457Z,97.9
2017-12-27T03:48:10.878Z,98.0
2017-12-27T03:49:12.277Z,98.0
2017-12-27T03:50:13.711Z,97.2
2017-12-27T03:51:15.216Z,97.5
2017-12-27T03:52:16.606Z,97.3
2017-12-27T03:53:18.081Z,97.5
2017-12-27T03:54:19.863Z,97.6
2017-12-27T03:55:21.427Z,97.3
2017-12-27T03:56:22.769Z,97.5
2017-12-27T03:57:24.249Z,97.3
2017-12-27T03:58:25.653Z,96.3
2017-12-27T03:59:27.132Z,97.3
2017-12-27T04:00:28.530Z,96.2
2017-12-27T04:01:30.014Z,96.4
2017-12-27T04:02:31.410Z,96.4
2017-12-27T04:03:32.895Z,95.6
2017-12-27T04:04:34.297Z,96.1
2017-12-27T04:05:35.775Z,95.7
2017-12-27T04:06:37.185Z,95.7
2017-12-27T04:07:38.656Z,95.7
2017-12-27T04:08:40.054Z,96.0
2017-12-27T04:09:41.554Z,96.4
2017-12-27T04:10:42.983Z,95.5
2017-12-27T04:11:44.394Z,95.4
2017-12-27T04:12:45.858Z,95.3
2017-12-27T04:13:47.256Z,94.9
2017-12-27T04:14:48.663Z,95.1
2017-12-27T04:15:50.178Z,95.2
2017-12-27T04:16:51.579Z,95.2
2017-12-27T04:17:53.072Z,95.6
2017-12-27T04:18:54.471Z,94.5
2017-12-27T04:19:55.953Z,95.1
2017-12-27T04:20:57.346Z,95.5
2017-12-27T04:21:58.744Z,95.6
2017-12-27T04:23:00.157Z,95.4
2017-12-27T04:24:01.557Z,95.1
2017-12-27T04:25:02.967Z,95.0
2017-12-27T04:26:04.378Z,95.3
2017-12-27T04:27:05.774Z,95.3
2017-12-27T04:28:07.259Z,95.3
2017-12-27T04:29:08.658Z,94.7
2017-12-27T04:30:10.142Z,94.6
2017-12-27T04:31:11.540Z,95.1
2017-12-27T04:32:12.942Z,94.5
2017-12-27T04:33:14.360Z,94.2
2017-12-27T04:34:15.758Z,95.2
2017-12-27T04:35:17.155Z,95.1
2017-12-27T04:36:18.577Z,94.5
2017-12-27T04:37:19.977Z,95.3
2017-12-27T04:38:21.456Z,95.1
2017-12-27T04:39:22.855Z,95.0
2017-12-27T04:40:24.338Z,95.2
2017-12-27T04:41:25.736Z,93.8
2017-12-27T04:42:27.219Z,94.0
2017-12-27T04:43:28.647Z,94.6
2017-12-27T04:44:30.105Z,94.5
2017-12-27T04:45:31.503Z,94.6
2017-12-27T04:46:32.985Z,93.4
2017-12-27T04:47:34.381Z,93.6
2017-12-27T04:48:35.861Z,92.6
2017-12-27T04:49:37.258Z,92.7
2017-12-27T04:50:38.740Z,93.3
2017-12-27T04:51:40.172Z,92.7
2017-12-27T04:52:41.576Z,92.6
2017-12-27T04:53:43.066Z,92.5
2017-12-27T04:54:44.462Z,92.4
2017-12-27T04:55:45.855Z,92.5
2017-12-27T04:56:47.295Z,92.7
2017-12-27T04:57:48.704Z,92.6
2017-12-27T04:58:50.096Z,92.7
2017-12-27T04:59:51.606Z,91.8
2017-12-27T05:00:53.001Z,92.0
2017-12-27T05:01:54.415Z,91.4
2017-12-27T05:02:55.880Z,92.1
2017-12-27T05:03:57.279Z,92.2
2017-12-27T05:04:58.704Z,92.0
2017-12-27T05:06:00.112Z,91.8
2017-12-27T05:07:01.504Z,91.1
2017-12-27T05:08:02.924Z,91.0
2017-12-27T05:09:04.321Z,90.4
2017-12-27T05:10:05.724Z,90.7
2017-12-27T05:11:07.142Z,91.3
2017-12-27T05:12:08.540Z,91.2
2017-12-27T05:13:09.937Z,90.6
2017-12-27T05:14:11.362Z,90.9
2017-12-27T05:15:12.759Z,90.2
2017-12-27T05:16:14.160Z,90.7
2017-12-27T05:17:15.579Z,90.9
2017-12-27T05:18:17.002Z,90.9
2017-12-27T05:19:18.487Z,89.5
2017-12-27T05:20:19.884Z,90.0
2017-12-27T05:21:21.342Z,89.8
2017-12-27T05:22:22.753Z,90.0
2017-12-27T05:23:24.220Z,90.1
2017-12-27T05:24:25.617Z,90.5
2017-12-27T05:25:27.100Z,90.9
2017-12-27T05:26:28.500Z,90.4
2017-12-27T05:27:30.047Z,90.8
2017-12-27T05:28:31.448Z,90.9
2017-12-27T05:29:32.863Z,89.7
2017-12-27T05:30:34.262Z,90.2
2017-12-27T05:31:35.746Z,90.9
2017-12-27T05:32:37.144Z,90.9
2017-12-27T05:33:38.625Z,90.6
2017-12-27T05:34:40.025Z,90.8
2017-12-27T05:35:41.504Z,90.9
2017-12-27T05:36:42.909Z,90.7
2017-12-27T05:37:44.301Z,90.7
2017-12-27T05:38:45.720Z,91.2
2017-12-27T05:39:47.146Z,91.8
2017-12-27T05:40:48.593Z,91.7
2017-12-27T05:41:50.045Z,92.2
2017-12-27T05:42:51.456Z,92.0
2017-12-27T05:43:52.869Z,91.1
2017-12-27T05:44:54.365Z,91.6
2017-12-27T05:45:55.790Z,92.0
2017-12-27T05:46:57.210Z,91.5
2017-12-27T05:47:58.705Z,91.5
2017-12-27T05:49:00.105Z,91.0
2017-12-27T05:50:01.510Z,90.6
2017-12-27T05:51:03.007Z,91.3
2017-12-27T05:52:04.407Z,92.2
2017-12-27T05:53:05.801Z,91.9
2017-12-27T05:54:07.224Z,91.8
2017-12-27T05:55:08.632Z,92.0
2017-12-27T05:56:10.051Z,91.9
2017-12-27T05:57:11.547Z,91.6
2017-12-27T05:58:12.950Z,91.9
2017-12-27T05:59:14.387Z,92.7
2017-12-27T06:00:15.881Z,92.2
2017-12-27T06:01:17.273Z,92.7
2017-12-27T06:02:18.694Z,93.1
2017-12-27T06:03:20.195Z,93.3
2017-12-27T06:04:21.598Z,94.0
2017-12-27T06:05:23.077Z,93.6
2017-12-27T06:06:24.479Z,93.1
2017-12-27T06:07:25.954Z,92.7
2017-12-27T06:08:27.357Z,93.1
2017-12-27T06:09:28.831Z,93.7
2017-12-27T06:10:30.239Z,93.7
2017-12-27T06:11:31.714Z,94.3
2017-12-27T06:12:33.107Z,94.2
2017-12-27T06:13:34.514Z,94.7
2017-12-27T06:14:35.947Z,94.8
2017-12-27T06:15:37.345Z,95.2
2017-12-27T06:16:38.775Z,96.0
2017-12-27T06:17:40.273Z,95.3
2017-12-27T06:18:41.699Z,94.9
2017-12-27T06:19:43.173Z,94.8
2017-12-27T06:20:44.572Z,95.4
2017-12-27T06:21:46.046Z,94.9
2017-12-27T06:22:47.444Z,95.2
2017-12-27T06:23:48.847Z,94.8
2017-12-27T06:24:50.352Z,95.1
2017-12-27T06:25:51.750Z,95.6
2017-12-27T06:26:53.156Z,95.3
2017-12-27T06:27:54.655Z,95.1
2017-12-27T06:28:56.081Z,95.4
2017-12-27T06:29:57.559Z,95.9
2017-12-27T06:30:58.963Z,95.7
2017-12-27T06:32:00.419Z,95.7
2017-12-27T06:33:01.812Z,95.5
2017-12-27T06:34:03.310Z,95.4
2017-12-27T06:35:04.706Z,95.9
2017-12-27T06:36:06.182Z,95.7
2017-12-27T06:37:07.627Z,95.6
2017-12-27T06:38:08.984Z,94.9
2017-12-27T06:39:10.398Z,95.3
2017-12-27T06:40:11.813Z,95.4
2017-12-27T06:41:13.213Z,95.9
2017-12-27T06:42:14.720Z,95.5
2017-12-27T06:43:16.116Z,95.5
2017-12-27T06:44:17.522Z,96.3
2017-12-27T06:45:18.941Z,96.2
2017-12-27T06:46:20.341Z,96.7
2017-12-27T06:47:21.772Z,96.7
2017-12-27T06:48:23.181Z,96.3
2017-12-27T06:49:24.581Z,95.5
2017-12-27T06:50:26.041Z,96.4
2017-12-27T06:51:27.453Z,96.5
2017-12-27T06:52:28.918Z,96.7
2017-12-27T06:53:30.701Z,96.9
2017-12-27T06:54:32.209Z,97.3
2017-12-27T06:55:33.605Z,96.8
2017-12-27T06:56:35.096Z,96.9
2017-12-27T06:57:36.493Z,97.6
2017-12-27T06:58:37.939Z,97.3
2017-12-27T06:59:39.410Z,97.4
2017-12-27T07:00:40.812Z,96.7
2017-12-27T07:01:42.221Z,97.1
2017-12-27T07:02:43.733Z,97.6
2017-12-27T07:03:45.126Z,97.1
2017-12-27T07:04:46.613Z,97.2
2017-12-27T07:05:48.061Z,97.5
2017-12-27T07:06:49.493Z,97.4
2017-12-27T07:07:50.957Z,96.2
2017-12-27T07:08:52.355Z,96.6
2017-12-27T07:09:53.816Z,96.6
2017-12-27T07:10:55.228Z,96.6
2017-12-27T07:11:56.627Z,96.6
2017-12-27T07:12:58.135Z,96.5
2017-12-27T07:13:59.571Z,96.3
2017-12-27T07:15:01.034Z,96.1
2017-12-27T07:16:02.441Z,96.6
2017-12-27T07:17:03.897Z,96.9
2017-12-27T07:18:05.297Z,96.8
2017-12-27T07:19:06.694Z,97.0
2017-12-27T07:20:08.115Z,97.4
2017-12-27T07:21:09.510Z,97.3
2017-12-27T07:22:10.919Z,97.3
2017-12-27T07:23:12.337Z,97.0
2017-12-27T07:24:13.742Z,96.9
2017-12-27T07:25:15.216Z,96.9
2017-12-27T07:26:16.614Z,96.9
2017-12-27T07:27:18.112Z,97.6
2017-12-27T07:28:19.512Z,97.5
2017-12-27T07:29:20.930Z,97.4
2017-12-27T07:30:22.418Z,97.5
2017-12-27T07:31:23.816Z,97.7
2017-12-27T07:32:25.305Z,97.9
2017-12-27T07:33:26.700Z,98.2
2017-12-27T07:34:28.101Z,98.6
2017-12-27T07:35:29.517Z,98.4
2017-12-27T07:36:30.918Z,98.5
2017-12-27T07:37:32.317Z,99.4
2017-12-27T07:38:33.741Z,100.0
2017-12-27T07:39:35.167Z,100.0
2017-12-27T07:40:36.547Z,100.0
2017-12-27T07:41:38.065Z,100.0
2017-12-27T07:42:39.479Z,100.0
2017-12-27T07:43:40.887Z,100.0
2017-12-27T07:44:42.287Z,100.0
2017-12-27T07:45:43.688Z,100.0
2017-12-27T07:46:45.159Z,100.0
2017-12-27T07:47:46.567Z,100.0
2017-12-27T07:48:47.966Z,100.0
2017-12-27T07:49:49.484Z,100.0
2017-12-27T07:50:51.267Z,100.0
2017-12-27T07:51:52.671Z,100.0
2017-12-27T07:52:54.109Z,100.0
2017-12-27T07:53:55.513Z,100.0
2017-12-27T07:54:56.912Z,100.0
2017-12-27T07:55:58.332Z,100.0
2017-12-27T07:56:59.731Z,100.0
2017-12-27T07:58:01.135Z,100.0
2017-12-27T07:59:02.652Z,100.0
2017-12-27T08:00:04.051Z,100.0
2017-12-27T08:01:05.538Z,100.0
2017-12-27T08:02:06.943Z,100.0
2017-12-27T08:03:08.442Z,100.0
2017-12-27T08:04:09.846Z,100.0
2017-12-27T08:05:11.252Z,100.0
2017-12-27T08:06:12.734Z,100.0
2017-12-27T08:07:14.151Z,100.0
2017-12-27T08:08:15.554Z,100.0
2017-12-27T08:09:17.056Z,100.0
2017-12-27T08:10:18.459Z,100.0
2017-12-27T08:11:19.937Z,100.0
2017-12-27T08:12:21.339Z,100.0
2017-12-27T08:13:22.820Z,100.0
2017-12-27T08:14:24.225Z,100.0
2017-12-27T08:15:25.696Z,100.0
2017-12-27T08:16:27.096Z,100.0
2017-12-27T08:17:28.580Z,100.0
2017-12-27T08:18:29.980Z,100.0
2017-12-27T08:19:31.905Z,100.0
2017-12-27T08:20:33.307Z,100.0
2017-12-27T08:21:34.749Z,100.0
2017-12-27T08:22:36.152Z,100.0
2017-12-27T08:23:37.629Z,100.0
2017-12-27T08:24:39.030Z,100.0
2017-12-27T08:25:40.445Z,100.0
2017-12-27T08:26:41.957Z,100.0
2017-12-27T08:27:43.365Z,100.0
2017-12-27T08:28:44.772Z,100.0
2017-12-27T08:29:46.272Z,100.0
2017-12-27T08:30:47.674Z,100.0
2017-12-27T08:31:49.152Z,100.0
2017-12-27T08:32:50.547Z,100.0
2017-12-27T08:33:52.034Z,100.0
2017-12-27T08:34:53.439Z,100.0
2017-12-27T08:35:54.843Z,100.0
2017-12-27T08:36:56.355Z,100.0
2017-12-27T08:37:57.758Z,100.0
2017-12-27T08:38:59.159Z,100.0
2017-12-27T08:40:00.676Z,100.0
2017-12-27T08:41:02.076Z,100.0
2017-12-27T08:42:03.559Z,100.0
2017-12-27T08:43:04.959Z,100.0
2017-12-27T08:44:06.441Z,100.0
2017-12-27T08:45:07.842Z,100.0
2017-12-27T08:46:09.311Z,100.0
2017-12-27T08:47:10.727Z,100.0
2017-12-27T08:48:12.199Z,100.0
2017-12-27T08:49:13.616Z,100.0
2017-12-27T08:50:15.085Z,100.0
2017-12-27T08:51:16.486Z,100.0
2017-12-27T08:52:17.963Z,100.0
2017-12-27T08:53:19.392Z,100.0
2017-12-27T08:54:20.844Z,100.0
2017-12-27T08:55:22.243Z,99.7
2017-12-27T08:56:23.723Z,98.8
2017-12-27T08:57:25.129Z,98.7
2017-12-27T08:58:26.621Z,98.6
2017-12-27T08:59:28.023Z,98.9
2017-12-27T09:00:29.485Z,98.3
2017-12-27T09:01:30.930Z,99.1
2017-12-27T09:02:32.362Z,98.9
2017-12-27T09:03:33.760Z,98.5
2017-12-27T09:04:35.246Z,99.0
2017-12-27T09:05:36.659Z,99.4
2017-12-27T09:06:38.059Z,99.5
2017-12-27T09:07:39.568Z,99.7
2017-12-27T09:08:40.971Z,99.5
2017-12-27T09:09:42.376Z,100.0
2017-12-27T09:10:43.888Z,100.0
2017-12-27T09:11:45.307Z,98.4
2017-12-27T09:12:46.772Z,99.1
2017-12-27T09:13:48.186Z,100.0
2017-12-27T09:14:49.589Z,100.0
2017-12-27T09:15:51.469Z,100.0
2017-12-27T09:16:52.888Z,100.0
2017-12-27T09:17:54.284Z,100.0
2017-12-27T09:18:55.726Z,100.0
2017-12-27T09:19:57.127Z,99.9
2017-12-27T09:20:58.529Z,98.7
2017-12-27T09:22:00.046Z,98.1
2017-12-27T09:23:01.450Z,98.1
2017-12-27T09:24:02.853Z,98.1
2017-12-27T09:25:04.352Z,97.2
2017-12-27T09:26:05.767Z,96.3
2017-12-27T09:27:07.173Z,96.1
2017-12-27T09:28:08.686Z,96.1
2017-12-27T09:29:10.091Z,95.6
2017-12-27T09:30:11.508Z,95.2
2017-12-27T09:31:13.003Z,94.5
2017-12-27T09:32:14.408Z,95.0
2017-12-27T09:33:15.884Z,95.1
2017-12-27T09:34:17.285Z,94.9
2017-12-27T09:35:18.764Z,94.7
2017-12-27T09:36:20.170Z,94.9
2017-12-27T09:37:21.645Z,93.4
2017-12-27T09:38:23.047Z,92.7
2017-12-27T09:39:24.527Z,93.4
2017-12-27T09:40:25.935Z,94.3
2017-12-27T09:41:27.404Z,94.6
2017-12-27T09:42:28.805Z,95.9
2017-12-27T09:43:30.295Z,96.2
2017-12-27T09:44:31.696Z,95.3
2017-12-27T09:45:33.102Z,95.2
2017-12-27T09:46:34.608Z,95.6
2017-12-27T09:47:36.026Z,95.9
2017-12-27T09:48:37.428Z,95.8
2017-12-27T09:49:38.930Z,96.4
2017-12-27T09:50:40.733Z,96.4
2017-12-27T09:51:42.219Z,96.4
2017-12-27T09:52:43.622Z,96.6
2017-12-27T09:53:45.100Z,96.3
2017-12-27T09:54:46.511Z,96.4
2017-12-27T09:55:47.911Z,95.7
2017-12-27T09:56:49.421Z,96.0
2017-12-27T09:57:50.826Z,95.9
2017-12-27T09:58:52.228Z,96.4
2017-12-27T09:59:53.743Z,96.5
2017-12-27T10:00:55.147Z,96.2
2017-12-27T10:01:56.553Z,95.6
2017-12-27T10:02:58.064Z,95.8
2017-12-27T10:03:59.464Z,95.7
2017-12-27T10:05:00.869Z,95.8
2017-12-27T10:06:02.433Z,95.2
2017-12-27T10:07:03.837Z,95.8
2017-12-27T10:08:05.245Z,95.4
2017-12-27T10:09:06.707Z,95.5
2017-12-27T10:10:08.111Z,95.2
2017-12-27T10:11:09.514Z,95.7
2017-12-27T10:12:11.406Z,95.6
2017-12-27T10:13:12.811Z,95.1
2017-12-27T10:14:14.213Z,95.0
2017-12-27T10:15:15.684Z,95.4
2017-12-27T10:16:17.090Z,95.7
2017-12-27T10:17:18.500Z,95.7
2017-12-27T10:18:19.977Z,95.8
2017-12-27T10:19:21.382Z,96.0
2017-12-27T10:20:22.784Z,95.8
2017-12-27T10:21:24.300Z,95.5
2017-12-27T10:22:25.703Z,95.3
2017-12-27T10:23:27.179Z,95.9
2017-12-27T10:24:28.583Z,96.5
2017-12-27T10:25:30.059Z,96.9
2017-12-27T10:26:31.463Z,97.1
2017-12-27T10:27:32.947Z,97.4
2017-12-27T10:28:34.350Z,97.3
2017-12-27T10:29:35.822Z,96.6
2017-12-27T10:30:37.250Z,96.4
2017-12-27T10:31:38.653Z,96.4
2017-12-27T10:32:40.146Z,96.9
2017-12-27T10:33:41.545Z,97.3
2017-12-27T10:34:42.948Z,97.8
2017-12-27T10:35:44.465Z,97.7
2017-12-27T10:36:45.873Z,98.2
2017-12-27T10:37:47.290Z,97.4
2017-12-27T10:38:48.796Z,97.6
2017-12-27T10:39:50.198Z,98.4
2017-12-27T10:40:51.602Z,98.4
2017-12-27T10:41:53.019Z,98.7
2017-12-27T10:42:54.425Z,97.6
2017-12-27T10:43:55.885Z,98.8
2017-12-27T10:44:57.291Z,98.2
2017-12-27T10:45:58.765Z,97.9
2017-12-27T10:47:00.167Z,97.9
2017-12-27T10:48:01.574Z,98.5
2017-12-27T10:49:03.085Z,98.9
2017-12-27T10:50:04.530Z,99.5
2017-12-27T10:51:05.923Z,99.5
2017-12-27T10:52:07.406Z,99.1
2017-12-27T10:53:08.812Z,99.0
2017-12-27T10:54:10.292Z,99.6
2017-12-27T10:55:11.695Z,100.0
2017-12-27T10:56:13.101Z,100.0
2017-12-27T10:57:14.612Z,100.0
2017-12-27T10:58:16.017Z,100.0
2017-12-27T10:59:17.421Z,100.0
2017-12-27T11:00:18.932Z,100.0
2017-12-27T11:01:20.352Z,99.2
2017-12-27T11:02:21.755Z,99.0
2017-12-27T11:03:23.251Z,99.6
2017-12-27T11:04:24.660Z,98.8
2017-12-27T11:05:26.154Z,99.5
2017-12-27T11:06:27.578Z,100.0
2017-12-27T11:07:29.008Z,100.0
2017-12-27T11:08:30.455Z,100.0
2017-12-27T11:09:31.858Z,100.0
2017-12-27T11:10:33.334Z,100.0
2017-12-27T11:11:35.248Z,100.0
2017-12-27T11:12:36.728Z,100.0
2017-12-27T11:13:38.133Z,100.0
2017-12-27T11:14:39.608Z,99.7
2017-12-27T11:15:41.015Z,99.2
2017-12-27T11:16:42.411Z,99.1
2017-12-27T11:17:43.928Z,98.6
2017-12-27T11:18:45.361Z,98.5
2017-12-27T11:19:46.765Z,97.7
2017-12-27T11:20:48.251Z,98.1
2017-12-27T11:21:49.656Z,98.1
2017-12-27T11:22:51.059Z,97.7
2017-12-27T11:23:52.572Z,98.2
2017-12-27T11:24:53.977Z,97.7
2017-12-27T11:25:55.383Z,97.8
2017-12-27T11:26:56.893Z,98.7
2017-12-27T11:27:58.298Z,99.0
2017-12-27T11:28:59.703Z,99.3
2017-12-27T11:30:01.214Z,99.5
2017-12-27T11:31:02.630Z,98.8
2017-12-27T11:32:04.035Z,98.9
2017-12-27T11:33:05.534Z,99.2
2017-12-27T11:34:06.951Z,98.8
2017-12-27T11:35:08.415Z,99.0
2017-12-27T11:36:09.819Z,98.9
2017-12-27T11:37:11.219Z,98.8
2017-12-27T11:38:12.736Z,97.6
2017-12-27T11:39:14.144Z,97.8
2017-12-27T11:40:15.548Z,97.7
2017-12-27T11:41:17.059Z,97.7
2017-12-27T11:42:18.469Z,96.2
2017-12-27T11:43:19.872Z,95.9
2017-12-27T11:44:21.380Z,96.6
2017-12-27T11:45:22.787Z,96.9
2017-12-27T11:46:24.578Z,97.1
2017-12-27T11:47:26.009Z,97.2
2017-12-27T11:48:27.417Z,96.8
2017-12-27T11:49:28.890Z,97.1
2017-12-27T11:50:30.303Z,95.6
2017-12-27T11:51:31.770Z,95.4
2017-12-27T11:52:33.176Z,95.9
2017-12-27T11:53:34.653Z,95.6
2017-12-27T11:54:36.060Z,95.6
2017-12-27T11:55:37.534Z,94.7
2017-12-27T11:56:38.956Z,94.7
2017-12-27T11:57:40.365Z,94.9
2017-12-27T11:58:41.906Z,95.4
2017-12-27T11:59:43.429Z,94.5
2017-12-27T12:00:44.839Z,94.8
2017-12-27T12:01:46.276Z,94.8
2017-12-27T12:02:47.680Z,93.9
2017-12-27T12:03:49.158Z,94.2
2017-12-27T12:04:50.561Z,93.7
2017-12-27T12:05:52.038Z,93.6
2017-12-27T12:06:53.443Z,93.7
2017-12-27T12:07:54.918Z,92.7
2017-12-27T12:08:56.327Z,92.8
2017-12-27T12:09:57.818Z,93.1
2017-12-27T12:10:59.224Z,93.5
2017-12-27T12:12:00.653Z,93.7
2017-12-27T12:13:02.120Z,93.7
2017-12-27T12:14:03.542Z,93.4
2017-12-27T12:15:04.944Z,93.6
2017-12-27T12:16:06.447Z,93.8
2017-12-27T12:17:07.859Z,95.4
2017-12-27T12:18:09.257Z,95.5
2017-12-27T12:19:10.762Z,95.5
2017-12-27T12:20:12.164Z,95.4
2017-12-27T12:21:13.646Z,95.7
2017-12-27T12:22:15.051Z,95.2
2017-12-27T12:23:16.524Z,95.1
2017-12-27T12:24:17.927Z,95.4
2017-12-27T12:25:19.405Z,95.1
2017-12-27T12:26:20.823Z,95.1
2017-12-27T12:27:22.231Z,95.1
2017-12-27T12:28:23.726Z,95.2
2017-12-27T12:29:25.137Z,95.2
2017-12-27T12:30:26.536Z,94.6
2017-12-27T12:31:28.427Z,94.5
2017-12-27T12:32:29.842Z,95.1
2017-12-27T12:33:31.246Z,94.8
2017-12-27T12:34:32.675Z,94.7
2017-12-27T12:35:34.098Z,94.4
2017-12-27T12:36:35.503Z,93.6
2017-12-27T12:37:36.997Z,93.7
2017-12-27T12:38:38.415Z,93.7
2017-12-27T12:39:40.240Z,92.6
2017-12-27T12:40:41.729Z,91.7
2017-12-27T12:41:43.133Z,91.8
2017-12-27T12:42:44.534Z,92.1
2017-12-27T12:43:46.063Z,92.0
2017-12-27T12:44:47.468Z,91.6
2017-12-27T12:45:49.080Z,91.6
2017-12-27T12:46:50.506Z,92.2
2017-12-27T12:47:51.907Z,92.2
2017-12-27T12:48:53.353Z,92.4
2017-12-27T12:49:54.755Z,92.9
2017-12-27T12:50:56.161Z,92.9
2017-12-27T12:51:57.675Z,92.6
2017-12-27T12:52:59.077Z,92.6
2017-12-27T12:54:00.552Z,92.5
2017-12-27T12:55:01.954Z,93.7
2017-12-27T12:56:03.443Z,93.7
2017-12-27T12:57:04.886Z,94.2
2017-12-27T12:58:06.293Z,94.5
2017-12-27T12:59:07.761Z,93.9
2017-12-27T13:00:09.163Z,93.8
2017-12-27T13:01:10.566Z,92.9
2017-12-27T13:02:12.079Z,93.1
2017-12-27T13:03:13.483Z,92.7
2017-12-27T13:04:14.956Z,92.4
2017-12-27T13:05:16.348Z,92.4
2017-12-27T13:06:17.861Z,92.6
2017-12-27T13:07:19.239Z,92.9
2017-12-27T13:08:20.749Z,92.9
2017-12-27T13:09:22.152Z,93.6
2017-12-27T13:10:23.600Z,92.6
2017-12-27T13:11:25.008Z,93.7
2017-12-27T13:12:26.480Z,93.4
2017-12-27T13:13:27.886Z,93.7
2017-12-27T13:14:29.360Z,93.7
2017-12-27T13:15:31.144Z,93.5
2017-12-27T13:16:32.655Z,94.3
2017-12-27T13:17:34.051Z,93.4
2017-12-27T13:18:35.469Z,93.6
2017-12-27T13:19:36.977Z,94.2
2017-12-27T13:20:38.407Z,94.0
2017-12-27T13:21:39.811Z,94.7
2017-12-27T13:22:41.302Z,95.1
2017-12-27T13:23:42.692Z,94.7
2017-12-27T13:24:44.190Z,93.7
2017-12-27T13:25:45.596Z,94.2
2017-12-27T13:26:47.056Z,94.7
2017-12-27T13:27:48.478Z,94.6